Aviation Digital Data Service (ADDS)

Output produced by METARs form (0534 UTC 19 February 2019)
found at http://www.aviationweather.gov/metar/data/
 
Forecast for: DNBE (BENIN CITY(CIV/M, NG)
Text: TAF DNBE 190355Z 1906/2012 VRB02KT 5000 HZ FEW008
Forecast period: 0600 UTC 19 February 2019 to 1200 UTC 20 February 2019
Forecast type: FROM: standard forecast or significant change
Winds: variable direction winds at 2 MPH (2 knots; 1.0 m/s)
Visibility: 3 miles (5 km)
Ceiling: at least 12,000 feet AGL
Clouds: few clouds at 800 feet AGL
Weather: HZ  (haze)
Text: TEMPO 1906/1908 15000 BR
Forecast period: 0600 to 0800 UTC 19 February 2019
Forecast type: TEMPORARY: The following changes expected for less than half the time period
Visibility: missing
Ceiling: unknown
Clouds: missing
Weather: BR  (mist)
Text: BECMG 20009KT 6000 NSW
Forecast period: 0600 UTC 19 February 2019 to 1200 UTC 20 February 2019
Forecast type: FROM: standard forecast or significant change
Visibility: missing
Ceiling: unknown
Clouds: missing
Weather: no significant weather forecast for this period